Catàleg de serveis del Meteocat
Campanya meteocatpedra

Dades de l'estació automàtica Seròs

?
?
Resum diari 22:00 TU
Dades diàries de l'estació meteorològica
Temperatura mitjana 14.1 °C
Temperatura màxima 20.7 °C 13:46 TU
Temperatura mínima 6.5 °C 5:28 TU
Humitat relativa mitjana 69%
Precipitació acumulada 0.0 mm
Ratxa màxima del vent (2 m) 29.9 km/h - 40º 10:29 TU
Irradiació solar global 6.6 MJ/m2

El tram horari està expressat en Temps Universal (TU). Cal sumar una hora en horari d'hivern i dues en horari d'estiu per passar a l'hora oficial.

Seròs

Metadades estació meteorol´gica
Municipi Seròs
Comarca Segrià
Altitud 89 m
Data alta 15.12.2011
Estat actual Operativa
Dades de període
Període
TU
TM
°C
TX
°C
TN
°C
HRM
%
PPT
mm
VVM (2 m)
km/h
DVM (2 m)
graus
VVX (2 m)
km/h
RS
W/m2
00:00 - 00:30 11.1 11.5 10.7 82 0.0 3.2 64 6.5 0
00:30 - 01:00 9.4 10.5 8.6 88 0.0 2.2 38 4.7 0
01:00 - 01:30 8.7 9.4 8.4 91 0.0 2.5 35 5.4 0
01:30 - 02:00 8.4 8.6 8.2 93 0.0 1.8 54 4.3 0
02:00 - 02:30 8.4 8.6 8.2 93 0.0 1.4 70 4.0 0
02:30 - 03:00 8.4 8.5 8.3 94 0.0 2.5 71 5.0 0
03:00 - 03:30 8.2 8.5 8.0 93 0.0 2.9 54 5.4 0
03:30 - 04:00 8.7 8.8 8.4 92 0.0 2.9 58 8.3 0
04:00 - 04:30 7.6 8.2 7.2 94 0.0 1.1 262 4.0 0
04:30 - 05:00 7.4 7.6 7.2 96 0.0 1.1 236 4.0 0
05:00 - 05:30 7.2 7.5 6.5 96 0.0 1.1 180 3.6 1
05:30 - 06:00 6.8 7.0 6.6 97 0.0 1.1 19 4.3 22
06:00 - 06:30 7.1 7.5 6.7 97 0.0 0.7 36 2.9 53
06:30 - 07:00 8.4 9.5 7.5 97 0.0 1.4 1 6.5 132
07:00 - 07:30 10.2 10.6 9.5 92 0.0 2.5 32 7.9 120
07:30 - 08:00 10.4 10.5 10.3 91 0.0 3.6 309 9.0 29
08:00 - 08:30 10.4 10.6 10.3 91 0.0 2.5 116 6.1 27
08:30 - 09:00 11.1 11.4 10.6 90 0.0 2.5 41 6.8 94
09:00 - 09:30 11.5 12.0 11.3 89 0.0 3.6 58 8.3 87
09:30 - 10:00 12.4 13.4 12.0 87 0.0 2.2 70 8.3 121
10:00 - 10:30 15.2 15.9 13.5 62 0.0 9.7 56 29.9 198
10:30 - 11:00 16.2 16.4 16.0 53 0.0 11.2 56 25.2 226
11:00 - 11:30 16.7 17.1 16.4 53 0.0 11.5 66 23.8 247
11:30 - 12:00 17.2 17.5 17.1 55 0.0 9.7 61 20.5 233
12:00 - 12:30 17.8 18.0 17.5 54 0.0 9.4 62 19.8 268
12:30 - 13:00 18.3 18.7 18.0 52 0.0 9.4 63 21.2 266
13:00 - 13:30 18.9 19.3 18.7 50 0.0 8.6 54 21.2 277
13:30 - 14:00 20.3 20.7 19.4 42 0.0 8.6 117 28.4 306
14:00 - 14:30 20.6 20.7 20.6 39 0.0 11.5 112 26.6 225
14:30 - 15:00 20.7 20.7 20.5 40 0.0 8.3 90 21.2 189
15:00 - 15:30 20.1 20.4 19.8 43 0.0 10.8 79 23.8 125
15:30 - 16:00 19.8 19.9 19.7 45 0.0 12.2 75 22.3 101
16:00 - 16:30 19.9 20.1 19.7 44 0.0 9.0 76 23.8 146
16:30 - 17:00 19.8 20.0 19.6 45 0.0 9.4 83 19.1 115
17:00 - 17:30 19.4 19.6 19.2 46 0.0 9.4 81 22.0 61
17:30 - 18:00 19.0 19.3 18.6 48 0.0 13.3 79 28.1 43
18:00 - 18:30 18.4 18.6 18.2 51 0.0 10.8 86 24.5 14
18:30 - 19:00 17.9 18.1 17.6 52 0.0 7.2 94 16.9 0
19:00 - 19:30 17.1 17.6 16.6 54 0.0 5.0 87 16.2 0
19:30 - 20:00 17.3 17.6 17.0 53 0.0 6.8 71 23.8 0
20:00 - 20:30 17.4 17.6 17.2 53 0.0 9.7 68 23.4 0
20:30 - 21:00 16.9 17.4 16.2 54 0.0 6.8 62 18.7 0
21:00 - 21:30 15.8 16.2 15.3 56 0.0 2.5 74 8.6 0
21:30 - 22:00 16.1 16.5 15.6 51 0.0 7.6 63 20.9 0
22:00 - 22:30 16.1 16.4 15.8 52 0.0 5.4 75 13.0 0

Les dades en taronja només han passat un control de qualitat automàtic. Resta pendent la seva validació definitiva.